NCAR-RAP Real-Time Weather Data

Output produced by METARs form (24 April 2018  16:20 UTC)
found at http://weather.rap.ucar.edu/surface/
 
RJAF 240700Z 14011KT 9999 -SHRA FEW020 SCT030 BKN050 16/10 Q1010
RJAF 240600Z 16013KT 9999 -SHRA FEW030 BKN050 17/10 Q1010
RJAF 240500Z 17014KT 9999 -SHRA FEW025 SCT035 BKN050 18/10 Q1011
RJAF 240400Z 15011KT 9999 -SHRA FEW025 BKN050 17/10 Q1012
RJAF 240300Z 15014KT 9999 -SHRA FEW020 SCT035 BKN050 16/10 Q1013
RJAF 240200Z 16013KT 9999 -SHRA FEW035 BKN050 BKN080 17/10 Q1014
RJAF 240100Z 15013KT 9999 -SHRA FEW035 BKN050 16/09 Q1014
RJAF 240000Z 15012KT 9999 FEW030 BKN050 BKN090 16/10 Q1015
RJAF 232330Z 16013KT 9999 -SHRA FEW030 SCT050 BKN080 16/10 Q1015
RJAF 232310Z 16014KT 9999 -SHRA FEW025 SCT030 BKN080 15/10 Q1015 RMK 1CU025 3CU030 5AC080 A2999
RJAF 230700Z 16018KT 9999 FEW050 BKN/// 23/10 Q1014
RJAF 230600Z 14015G26KT 100V180 9999 FEW060 BKN/// 25/09 Q1013
RJAF 230500Z 15012KT 110V170 9999 FEW060 BKN/// 25/09 Q1014
RJAF 230400Z 15012KT 9999 FEW060 BKN/// 24/07 Q1015
RJAF 230300Z 34004KT 300V040 CAVOK 23/10 Q1017
RJAF 230200Z 33004KT 280V040 CAVOK 22/08 Q1018
RJAF 230100Z VRB03KT 9999 FEW100 BKN/// 21/08 Q1019
RJAF 230000Z VRB02KT 9999 FEW100 SCT/// 18/07 Q1020
RJAF 222330Z VRB02KT CAVOK 17/07 Q1020
RJAF 222310Z VRB02KT CAVOK 16/07 Q1020 RMK A3013
RJAF 220700Z 35012KT CAVOK 27/04 Q1016
RJAF 220600Z 34008KT 310V020 CAVOK 27/01 Q1016
RJAF 220500Z 36005KT 300V040 CAVOK 27/03 Q1017